Airfield :
LOGIN :

Register | Disclaimer

   EN    FR    IT 

 










Legend :    VFR   Marginal VFR   IFR   Intensive IFR   Very Intensive IFR
Visi :
Ceiling :
>= 8 km
>= 3000ft
5 to 8 km
1000 to 3000 ft
1500m to 5 km
500 to 1000 ft
800 to 1500m
200 to 500 ft
< 800m
< 200 ft
Symbols :   Thunderstorms  Fog  Heavy snow  Heavy precipitations  Wind > 20 kt
SIGMETs :     Misc.  Thunderstorms  Icing  Turbulence  Mountain Waves  Volcanic Ashes






- Airport Elevation : 68 ft


ESCM - Uppsala

CURRENT METAR :
  • 200320Z AUTO 23009KT 9999 NCD M00/M04 Q1029

EXPIRED METARs :
  • 200250Z AUTO 23007KT 9999 FEW140/// M00/M04 Q1030
  • 200220Z AUTO 22009KT 9999 NCD M00/M04 Q1030
  • 200150Z AUTO 23008KT 9999 NCD 00/M04 Q1030
  • 200120Z AUTO 23003KT 170V270 9999 BKN170/// 00/M04 Q1030
  • 200050Z AUTO 28003KT 240V310 9999 OVC160/// 01/M04 Q1031

Expired Forecast.



MET'MAP, your aeronautical weather chart ! - Copyright ORBIFLY December 2007 - Disclaimer

ORBIFLY MET'MAP TEAM :

Programming & Development : Alexandra Zaïnal
Concept & original design : Baudouin d'Aumeries
Assistance for programming : Marc-Olivier Méhu
Technical & hardware support : Manuel Goepfert

Contact : metmap@orbifly.com




SOURCES & CREDITS :

   NOAA